Time;durP1;ratioP1;P1;durP2;ratioP2;P2;SDS_P1;SDS_P2;PMS_P1;PMS_P2;Temp;Humidity;BMP_temperature;BMP_pressure;BME280_temperature;BME280_humidity;BME280_pressure;Samples;Min_cycle;Max_cycle;Signal;HPM_P1;HPM_P2
2022/05/22 00:02:25;;;;;;;2.80;1.20;;;22.20;99.90;;;;;;5007426;28;20201;-93
2022/05/22 00:04:56;;;;;;;0.90;0.80;;;22.30;99.90;;;;;;5018023;28;20206;-92
2022/05/22 00:07:30;;;;;;;1.93;1.20;;;22.00;99.90;;;;;;5018055;28;20340;-93
2022/05/22 00:12:47;;;;;;;3.23;1.13;;;21.90;99.90;;;;;;5022592;28;20248;-92
2022/05/22 00:15:19;;;;;;;2.63;1.33;;;21.90;99.90;;;;;;5022038;28;20229;-92
2022/05/22 00:17:53;;;;;;;1.73;1.03;;;21.90;99.90;;;;;;5018867;28;20234;-93
2022/05/22 00:20:25;;;;;;;1.37;0.93;;;21.90;99.90;;;;;;5017898;28;20237;-92
2022/05/22 00:22:58;;;;;;;1.60;0.90;;;21.90;99.90;;;;;;5017527;28;20271;-92
2022/05/22 00:25:31;;;;;;;2.83;1.10;;;21.90;99.90;;;;;;5017999;28;20205;-93
2022/05/22 00:28:04;;;;;;;1.13;1.00;;;22.10;99.90;;;;;;5016546;28;20217;-93
2022/05/22 00:30:36;;;;;;;1.73;0.90;;;21.90;99.90;;;;;;5017544;28;20240;-93
2022/05/22 00:33:07;;;;;;;2.60;1.37;;;22.10;99.90;;;;;;5005801;28;20624;-93
2022/05/22 00:35:39;;;;;;;2.40;1.10;;;22.10;99.90;;;;;;5002263;28;20252;-93
2022/05/22 00:38:13;;;;;;;2.53;1.00;;;22.10;99.90;;;;;;5002925;28;20257;-93
2022/05/22 00:40:45;;;;;;;2.37;1.23;;;21.90;99.90;;;;;;5001505;28;20202;-92
2022/05/22 00:43:32;;;;;;;2.17;1.10;;;22.10;99.90;;;;;;5002429;28;20277;-93
2022/05/22 00:46:11;;;;;;;3.87;1.20;;;22.20;99.90;;;;;;5004162;28;20237;-93
2022/05/22 00:48:46;;;;;;;1.80;1.37;;;22.30;99.90;;;;;;5004170;28;20216;-92
2022/05/22 00:51:21;;;;;;;1.43;0.90;;;22.50;99.90;;;;;;5002603;28;20214;-92
2022/05/22 00:54:04;;;;;;;3.03;1.20;;;22.70;99.90;;;;;;5004552;28;20217;-92
2022/05/22 00:56:39;;;;;;;2.17;1.13;;;23.20;99.90;;;;;;5003206;28;20265;-93
2022/05/22 00:59:17;;;;;;;3.70;1.00;;;23.80;99.90;;;;;;5003879;28;20328;-92
2022/05/22 01:01:48;;;;;;;2.10;1.13;;;24.20;99.90;;;;;;5002954;28;20220;-92
2022/05/22 01:04:26;;;;;;;2.03;1.03;;;23.90;99.90;;;;;;5004472;28;20263;-92
2022/05/22 01:06:57;;;;;;;1.40;0.90;;;24.40;99.90;;;;;;5019631;28;20206;-93
2022/05/22 01:09:31;;;;;;;1.77;0.97;;;24.70;99.90;;;;;;5031071;23;20206;-93
2022/05/22 01:12:09;;;;;;;2.57;0.90;;;24.70;99.90;;;;;;4998445;28;20210;-93
2022/05/22 01:14:42;;;;;;;1.93;1.10;;;24.40;99.90;;;;;;4999497;28;20262;-93
2022/05/22 01:17:13;;;;;;;1.70;1.00;;;24.80;99.90;;;;;;4997930;28;20237;-93
2022/05/22 01:19:56;;;;;;;2.20;1.10;;;25.10;99.90;;;;;;4998773;28;20672;-94
2022/05/22 01:22:29;;;;;;;1.13;0.90;;;24.50;99.90;;;;;;4999740;28;20202;-93
2022/05/22 01:25:01;;;;;;;2.63;1.00;;;23.90;99.90;;;;;;4999568;28;20281;-93
2022/05/22 01:27:32;;;;;;;5.00;1.10;;;25.00;99.90;;;;;;4999025;28;20220;-90
2022/05/22 01:30:12;;;;;;;2.50;1.03;;;24.80;99.90;;;;;;4996998;28;20258;-92
2022/05/22 01:32:46;;;;;;;2.13;1.27;;;25.20;99.70;;;;;;4995046;28;20218;-91
2022/05/22 01:35:19;;;;;;;1.00;0.80;;;25.70;98.90;;;;;;4988589;28;20849;-92
2022/05/22 01:37:56;;;;;;;4.03;1.30;;;25.60;99.20;;;;;;4990856;28;20258;-92
2022/05/22 01:40:28;;;;;;;3.07;1.27;;;25.90;97.90;;;;;;4988810;28;20234;-92
2022/05/22 01:43:00;;;;;;;2.07;1.03;;;26.10;97.50;;;;;;4984440;28;20210;-92
2022/05/22 01:51:58;;;;;;;1.70;0.90;;;25.30;98.70;;;;;;5345066;23;20268;-92
2022/05/22 01:54:33;;;;;;;1.43;1.03;;;23.70;98.30;;;;;;5037089;28;20268;-91
2022/05/22 01:57:07;;;;;;;2.50;2.20;;;22.30;99.90;;;;;;5032926;28;20216;-92
2022/05/22 01:59:38;;;;;;;2.40;1.27;;;21.40;99.90;;;;;;5036689;28;20236;-94
2022/05/22 02:05:04;;;;;;;6.50;2.00;;;20.00;99.90;;;;;;5038013;28;20186;-92
2022/05/22 02:16:11;;;;;;;2.60;1.43;;;17.00;99.90;;;;;;4993503;28;20226;-91
2022/05/22 02:18:47;;;;;;;2.80;1.30;;;16.80;99.90;;;;;;4991010;28;20277;-91
2022/05/22 02:21:22;;;;;;;4.23;1.63;;;16.90;99.90;;;;;;4993770;28;20242;-91
2022/05/22 02:24:04;;;;;;;4.27;1.40;;;16.90;99.90;;;;;;4993201;28;20241;-91
2022/05/22 02:29:37;;;;;;;1.03;0.93;;;17.50;99.90;;;;;;4997723;28;20206;-92
2022/05/22 02:32:22;;;;;;;1.90;1.43;;;17.70;99.90;;;;;;4996027;28;20211;-91
2022/05/22 02:34:55;;;;;;;2.13;1.10;;;17.60;99.90;;;;;;5062537;23;20282;-91
2022/05/22 02:37:27;;;;;;;1.83;1.17;;;17.20;99.90;;;;;;4989299;28;20214;-91
2022/05/22 02:40:04;;;;;;;5.03;1.37;;;17.20;99.90;;;;;;4991872;28;20214;-91
2022/05/22 02:42:59;;;;;;;4.30;1.27;;;17.40;99.90;;;;;;4994578;28;20182;-91
2022/05/22 02:45:38;;;;;;;3.50;1.43;;;17.40;99.90;;;;;;4994221;28;20246;-92
2022/05/22 02:48:14;;;;;;;3.73;1.43;;;17.50;99.90;;;;;;4993706;28;20704;-92
2022/05/22 02:50:50;;;;;;;3.20;2.20;;;17.40;99.90;;;;;;4994252;28;20214;-91
2022/05/22 02:53:22;;;;;;;10.57;2.50;;;17.30;99.90;;;;;;4989000;28;20215;-92
2022/05/22 02:55:54;;;;;;;4.80;2.50;;;17.30;99.90;;;;;;4987236;28;20628;-91
2022/05/22 02:58:38;;;;;;;3.80;2.67;;;17.30;99.90;;;;;;4990711;28;20218;-93
2022/05/22 03:01:13;;;;;;;3.37;2.43;;;17.20;99.90;;;;;;4993438;28;20210;-91
2022/05/22 03:03:46;;;;;;;4.73;2.80;;;17.20;99.90;;;;;;4994850;28;20218;-91
2022/05/22 03:09:19;;;;;;;3.23;1.50;;;17.20;99.90;;;;;;4976173;28;20203;-91
2022/05/22 03:11:51;;;;;;;4.07;1.50;;;17.20;99.90;;;;;;4977709;29;20254;-90
2022/05/22 03:14:27;;;;;;;3.60;1.30;;;17.10;99.90;;;;;;4978808;28;20184;-90
2022/05/22 03:16:58;;;;;;;2.63;1.20;;;17.00;99.90;;;;;;4976467;28;20225;-91
2022/05/22 03:19:34;;;;;;;1.80;1.30;;;17.10;99.90;;;;;;4974612;29;20238;-91
2022/05/22 03:22:07;;;;;;;1.30;1.20;;;17.10;99.90;;;;;;4976340;28;20325;-90
2022/05/22 03:24:38;;;;;;;3.43;1.00;;;16.90;99.90;;;;;;4969041;29;20211;-90
2022/05/22 03:27:11;;;;;;;1.27;0.80;;;16.60;99.90;;;;;;4963745;29;20211;-91
2022/05/22 03:29:47;;;;;;;1.63;1.00;;;16.50;99.90;;;;;;4967649;29;20223;-93
2022/05/22 03:32:22;;;;;;;1.77;1.10;;;16.40;99.90;;;;;;4966068;29;20302;-92
2022/05/22 03:34:59;;;;;;;2.80;1.33;;;16.40;99.90;;;;;;4964605;29;20219;-92
2022/05/22 03:37:31;;;;;;;1.57;0.97;;;16.20;99.90;;;;;;4963356;28;20290;-93
2022/05/22 03:40:06;;;;;;;3.47;0.87;;;16.10;99.90;;;;;;4962149;29;20215;-93
2022/05/22 03:42:39;;;;;;;1.10;1.00;;;15.90;99.90;;;;;;4962753;28;20211;-92
2022/05/22 03:45:19;;;;;;;1.40;0.80;;;15.80;99.90;;;;;;4975087;28;20242;-92
2022/05/22 03:47:54;;;;;;;0.93;0.80;;;15.70;99.90;;;;;;4996161;28;20224;-92
2022/05/22 03:53:13;;;;;;;1.00;0.83;;;15.50;99.90;;;;;;4997608;28;20231;-92
2022/05/22 03:55:47;;;;;;;1.57;0.83;;;15.40;99.90;;;;;;4995476;28;20241;-92
2022/05/22 03:58:24;;;;;;;2.17;0.97;;;15.40;99.90;;;;;;4989929;28;20231;-93
2022/05/22 04:01:02;;;;;;;1.33;1.10;;;15.30;99.90;;;;;;4995208;28;20223;-92
2022/05/22 04:03:37;;;;;;;1.57;0.97;;;15.20;99.90;;;;;;5169249;23;20345;-91
2022/05/22 04:06:13;;;;;;;3.53;1.40;;;15.20;99.90;;;;;;4980764;28;20222;-93
2022/05/22 04:08:45;;;;;;;2.77;1.40;;;15.10;99.90;;;;;;4983006;28;20638;-92
2022/05/22 04:11:19;;;;;;;1.33;0.80;;;15.10;99.90;;;;;;4985250;28;20285;-91
2022/05/22 04:13:50;;;;;;;2.43;1.17;;;15.00;99.90;;;;;;4984400;28;20221;-92
2022/05/22 04:16:40;;;;;;;1.67;0.90;;;14.90;99.90;;;;;;4985380;28;20234;-92
2022/05/22 04:19:11;;;;;;;1.57;1.20;;;14.80;99.90;;;;;;4962793;29;20235;-92
2022/05/22 04:21:44;;;;;;;1.83;1.20;;;14.70;99.90;;;;;;4968171;28;20666;-92
2022/05/22 04:27:06;;;;;;;2.60;1.13;;;14.50;99.90;;;;;;4973736;28;20195;-92
2022/05/22 04:29:41;;;;;;;1.70;1.10;;;14.40;99.90;;;;;;4972309;28;20239;-92
2022/05/22 04:32:15;;;;;;;1.40;1.00;;;14.40;99.90;;;;;;4973727;29;20215;-92
2022/05/22 04:34:47;;;;;;;2.97;1.00;;;14.30;99.90;;;;;;4970037;28;20293;-91
2022/05/22 04:37:19;;;;;;;0.90;0.90;;;14.30;99.90;;;;;;4973225;28;20208;-92
2022/05/22 04:39:52;;;;;;;2.07;1.90;;;14.30;99.90;;;;;;4971269;29;20345;-92
2022/05/22 04:42:25;;;;;;;2.00;1.20;;;14.20;99.90;;;;;;4972155;28;20223;-92
2022/05/22 04:48:02;;;;;;;3.53;3.10;;;14.00;99.90;;;;;;4974050;28;20208;-93
2022/05/22 04:50:35;;;;;;;5.57;4.70;;;13.90;99.90;;;;;;4972315;28;20207;-92
2022/05/22 04:53:09;;;;;;;6.13;5.13;;;13.90;99.90;;;;;;4971866;29;20207;-92
2022/05/22 04:55:43;;;;;;;5.97;4.97;;;13.80;99.90;;;;;;4972063;28;20214;-92
2022/05/22 04:58:16;;;;;;;5.20;4.37;;;13.80;99.90;;;;;;4966431;29;20212;-93
2022/05/22 05:00:50;;;;;;;2.70;1.90;;;13.70;99.90;;;;;;4966439;29;20199;-91
2022/05/22 05:03:25;;;;;;;2.03;1.80;;;13.50;99.90;;;;;;4967644;29;20227;-92
2022/05/22 05:05:57;;;;;;;2.07;1.80;;;13.50;99.90;;;;;;4972735;28;20218;-93
2022/05/22 05:08:32;;;;;;;2.20;1.70;;;13.40;99.90;;;;;;4970955;28;20276;-92
2022/05/22 05:11:17;;;;;;;2.83;1.30;;;13.40;99.90;;;;;;4971148;29;20210;-90
2022/05/22 05:13:52;;;;;;;1.50;1.37;;;13.30;99.90;;;;;;4972447;29;20271;-91
2022/05/22 05:16:24;;;;;;;1.83;1.60;;;13.30;99.90;;;;;;4971298;28;20278;-91
2022/05/22 05:18:59;;;;;;;1.57;1.20;;;13.20;99.90;;;;;;4972832;28;20259;-92
2022/05/22 05:21:35;;;;;;;2.17;1.10;;;13.20;99.90;;;;;;4970071;28;20211;-92
2022/05/22 05:24:07;;;;;;;1.70;1.10;;;13.10;99.90;;;;;;4967816;29;20203;-92
2022/05/22 05:26:39;;;;;;;1.20;1.10;;;13.00;99.90;;;;;;4966988;28;20239;-92
2022/05/22 05:29:10;;;;;;;1.70;0.90;;;13.10;99.90;;;;;;4970241;28;20263;-92
2022/05/22 05:31:42;;;;;;;1.20;1.07;;;13.00;99.90;;;;;;4967114;29;20211;-92
2022/05/22 05:34:16;;;;;;;2.50;1.57;;;13.00;99.90;;;;;;4974470;29;20318;-91
2022/05/22 05:36:51;;;;;;;1.30;1.20;;;12.90;99.90;;;;;;4972204;28;20661;-91
2022/05/22 05:39:23;;;;;;;1.90;1.67;;;12.80;99.90;;;;;;4973044;28;20302;-92
2022/05/22 05:41:58;;;;;;;2.00;1.87;;;12.80;99.90;;;;;;4972337;28;20211;-92
2022/05/22 05:44:29;;;;;;;2.97;1.80;;;12.70;99.90;;;;;;4971952;29;20271;-92
2022/05/22 05:47:01;;;;;;;2.10;1.90;;;12.60;99.90;;;;;;4963332;28;20219;-92
2022/05/22 05:49:34;;;;;;;2.97;1.97;;;12.60;99.90;;;;;;4968912;28;20350;-93
2022/05/22 05:52:08;;;;;;;2.43;1.63;;;12.60;99.90;;;;;;4971048;29;20207;-92
2022/05/22 05:55:02;;;;;;;1.43;1.30;;;12.50;99.90;;;;;;4971910;28;20211;-91
2022/05/22 05:57:35;;;;;;;1.73;1.10;;;12.50;99.90;;;;;;4969520;28;20273;-92
2022/05/22 06:00:10;;;;;;;1.73;0.93;;;12.50;99.90;;;;;;4960810;29;20267;-91
2022/05/22 06:02:41;;;;;;;1.33;1.13;;;12.50;99.90;;;;;;4976499;29;20207;-91
2022/05/22 06:05:16;;;;;;;2.00;1.00;;;12.50;99.90;;;;;;4978968;28;20211;-92
2022/05/22 06:07:51;;;;;;;2.87;1.00;;;12.50;99.90;;;;;;4973928;28;20215;-91
2022/05/22 06:10:23;;;;;;;1.83;1.10;;;12.40;99.90;;;;;;4963532;28;20207;-92
2022/05/22 06:12:55;;;;;;;2.50;1.47;;;12.30;99.90;;;;;;4963418;28;20279;-92
2022/05/22 06:15:30;;;;;;;1.07;1.00;;;12.30;99.90;;;;;;4967380;29;20211;-91
2022/05/22 06:18:01;;;;;;;1.30;0.90;;;12.20;99.90;;;;;;4966497;28;20705;-91
2022/05/22 06:20:35;;;;;;;1.03;0.90;;;12.10;99.90;;;;;;4964629;28;20228;-91
2022/05/22 06:23:08;;;;;;;3.17;1.27;;;12.10;99.90;;;;;;4962369;29;20208;-91
2022/05/22 06:25:44;;;;;;;1.47;1.37;;;12.00;99.90;;;;;;4962679;29;20245;-92
2022/05/22 06:28:17;;;;;;;1.63;1.20;;;12.00;99.90;;;;;;4966272;29;20245;-92
2022/05/22 06:30:49;;;;;;;1.80;1.00;;;11.90;99.90;;;;;;4962736;29;20659;-91
2022/05/22 06:33:21;;;;;;;1.73;0.87;;;11.80;99.90;;;;;;4959199;29;20219;-93
2022/05/22 06:35:54;;;;;;;1.73;1.07;;;11.70;99.90;;;;;;4944024;29;20204;-93
2022/05/22 06:41:15;;;;;;;0.87;0.80;;;11.60;99.90;;;;;;4944836;29;20252;-92
2022/05/22 06:43:49;;;;;;;1.00;0.90;;;11.50;99.90;;;;;;4948073;29;20272;-93
2022/05/22 06:46:21;;;;;;;2.17;1.43;;;11.50;99.90;;;;;;4943241;29;20238;-93
2022/05/22 06:48:52;;;;;;;1.20;0.80;;;11.50;99.90;;;;;;4942556;29;20208;-93
2022/05/22 06:51:28;;;;;;;1.33;1.00;;;11.50;99.90;;;;;;4941525;29;20252;-93
2022/05/22 06:53:59;;;;;;;1.37;0.90;;;11.40;99.90;;;;;;4941863;29;20219;-92
2022/05/22 06:56:30;;;;;;;3.00;1.00;;;11.50;99.90;;;;;;4944079;29;20248;-93
2022/05/22 06:59:02;;;;;;;1.67;0.90;;;11.40;99.90;;;;;;4943105;29;20283;-93
2022/05/22 07:01:34;;;;;;;1.40;0.90;;;11.30;99.90;;;;;;4947020;29;20239;-93
2022/05/22 07:04:05;;;;;;;1.00;0.87;;;11.30;99.90;;;;;;4967912;28;20251;-92
2022/05/22 07:06:39;;;;;;;1.97;0.97;;;11.20;99.90;;;;;;4968874;28;20226;-93
2022/05/22 07:09:11;;;;;;;0.93;0.80;;;11.10;99.90;;;;;;4963422;28;20204;-92
2022/05/22 07:11:42;;;;;;;1.87;1.10;;;11.10;99.90;;;;;;4963186;29;20243;-90
2022/05/22 07:14:15;;;;;;;1.67;1.00;;;11.10;99.90;;;;;;4968511;29;20212;-93
2022/05/22 07:16:49;;;;;;;1.63;1.00;;;11.00;99.90;;;;;;4963498;28;20235;-91
2022/05/22 07:19:21;;;;;;;1.77;0.97;;;11.00;99.90;;;;;;4962549;29;20677;-92
2022/05/22 07:21:56;;;;;;;1.50;1.33;;;10.90;99.90;;;;;;4962444;29;20267;-93
2022/05/22 07:24:27;;;;;;;1.13;1.03;;;10.80;99.90;;;;;;4962129;29;20218;-92
2022/05/22 07:26:59;;;;;;;1.73;1.57;;;10.70;99.90;;;;;;4962086;28;20207;-93
2022/05/22 07:29:30;;;;;;;1.33;1.00;;;10.70;99.90;;;;;;4960719;28;20212;-92
2022/05/22 07:32:02;;;;;;;2.80;1.20;;;10.70;99.90;;;;;;4960917;29;20223;-93
2022/05/22 07:34:34;;;;;;;1.40;1.30;;;10.70;99.90;;;;;;4960863;28;20207;-93
2022/05/22 07:37:09;;;;;;;1.40;1.13;;;10.60;99.90;;;;;;4960607;29;20215;-92
2022/05/22 07:39:41;;;;;;;2.87;1.20;;;10.60;99.90;;;;;;4960492;29;20218;-92
2022/05/22 07:42:12;;;;;;;2.73;1.50;;;10.60;99.90;;;;;;4960993;28;20286;-92
2022/05/22 07:44:43;;;;;;;1.53;1.33;;;10.60;99.90;;;;;;4961908;29;20562;-92
2022/05/22 07:47:15;;;;;;;1.73;0.90;;;10.60;99.90;;;;;;4960522;28;20245;-93
2022/05/22 07:52:52;;;;;;;2.10;0.90;;;10.50;99.90;;;;;;4883417;29;20288;-92
2022/05/22 07:55:23;;;;;;;1.50;0.90;;;10.40;99.90;;;;;;4886438;29;20253;-93
2022/05/22 07:57:55;;;;;;;1.30;1.03;;;10.30;99.90;;;;;;4923603;28;20208;-93
2022/05/22 08:00:27;;;;;;;1.27;1.07;;;10.30;99.90;;;;;;4963314;28;20235;-93
2022/05/22 08:02:59;;;;;;;1.20;1.00;;;10.30;99.90;;;;;;4967925;28;20662;-92
2022/05/22 08:05:32;;;;;;;1.10;0.93;;;10.20;99.90;;;;;;4969484;29;20212;-94
2022/05/22 08:08:06;;;;;;;1.13;0.80;;;10.20;99.90;;;;;;4965007;29;20211;-93
2022/05/22 08:10:40;;;;;;;1.20;0.80;;;10.10;99.90;;;;;;5055559;23;20337;-92
2022/05/22 08:13:16;;;;;;;0.70;0.70;;;10.10;99.90;;;;;;5011896;28;20202;-92
2022/05/22 08:15:48;;;;;;;1.80;0.90;;;10.10;99.90;;;;;;5006769;28;20236;-91
2022/05/22 08:18:20;;;;;;;1.20;1.00;;;10.10;99.90;;;;;;4995951;28;20195;-91
2022/05/22 08:20:52;;;;;;;0.90;0.90;;;10.00;99.90;;;;;;4995408;28;20223;-91
2022/05/22 08:23:25;;;;;;;1.27;1.00;;;9.90;99.90;;;;;;4995711;28;20210;-91
2022/05/22 08:25:57;;;;;;;1.20;0.90;;;9.90;99.90;;;;;;4995865;28;20194;-91
2022/05/22 08:28:29;;;;;;;1.87;1.17;;;9.90;99.90;;;;;;4996661;28;20207;-92
2022/05/22 08:31:00;;;;;;;1.43;0.90;;;9.90;99.90;;;;;;4994681;28;20211;-91
2022/05/22 08:33:31;;;;;;;1.20;1.10;;;9.80;99.90;;;;;;4989725;28;20207;-91
2022/05/22 08:36:02;;;;;;;1.37;1.10;;;9.80;99.90;;;;;;4987121;28;20222;-91
2022/05/22 08:38:38;;;;;;;1.97;0.90;;;9.80;99.90;;;;;;4987012;28;20221;-90
2022/05/22 08:41:13;;;;;;;1.63;1.20;;;9.80;99.90;;;;;;4981172;28;20700;-91
2022/05/22 08:43:57;;;;;;;2.00;1.23;;;9.90;99.90;;;;;;4980854;28;20218;-91
2022/05/22 08:46:34;;;;;;;1.57;1.23;;;9.90;99.90;;;;;;4981123;28;20203;-92
2022/05/22 08:49:14;;;;;;;3.67;1.40;;;9.90;99.90;;;;;;4981224;28;20215;-92
2022/05/22 08:51:51;;;;;;;1.40;1.30;;;9.80;99.90;;;;;;4979010;28;20237;-91
2022/05/22 08:54:30;;;;;;;1.63;1.40;;;9.70;99.90;;;;;;4981866;28;20309;-92
2022/05/22 08:59:55;;;;;;;1.40;1.30;;;9.60;99.90;;;;;;4982391;28;20215;-92
2022/05/22 09:02:34;;;;;;;1.60;1.50;;;9.60;99.90;;;;;;4982148;28;20682;-91
2022/05/22 09:05:10;;;;;;;2.90;1.40;;;9.60;99.90;;;;;;4982827;28;20634;-91
2022/05/22 09:07:50;;;;;;;1.70;1.60;;;9.50;99.90;;;;;;4983290;28;20222;-92
2022/05/22 09:10:29;;;;;;;1.80;1.30;;;9.50;99.90;;;;;;4982827;28;20266;-92
2022/05/22 09:13:12;;;;;;;2.27;1.37;;;9.50;99.90;;;;;;4984257;28;20222;-92
2022/05/22 09:16:13;;;;;;;3.13;1.40;;;9.50;99.90;;;;;;4998544;28;20230;-92
2022/05/22 09:18:52;;;;;;;1.80;1.67;;;9.40;99.90;;;;;;4984218;28;20206;-91
2022/05/22 09:21:32;;;;;;;1.63;1.50;;;9.30;99.90;;;;;;4978033;28;20250;-91
2022/05/22 09:24:05;;;;;;;1.57;1.47;;;9.30;99.90;;;;;;4977270;28;20226;-92
2022/05/22 09:26:46;;;;;;;2.23;1.33;;;9.20;99.90;;;;;;4975085;28;20259;-91
2022/05/22 09:29:43;;;;;;;2.50;1.50;;;9.10;99.90;;;;;;4971571;29;20287;-91
2022/05/22 09:32:28;;;;;;;1.33;1.23;;;9.10;99.90;;;;;;4986268;28;20232;-91
2022/05/22 09:35:13;;;;;;;2.13;1.30;;;9.10;99.90;;;;;;5009902;28;20280;-91
2022/05/22 09:37:54;;;;;;;3.40;1.70;;;9.00;99.90;;;;;;5004813;28;20237;-91
2022/05/22 09:40:35;;;;;;;3.97;1.43;;;9.00;99.90;;;;;;5000985;28;20218;-91
2022/05/22 09:43:27;;;;;;;1.70;1.27;;;9.00;99.90;;;;;;5003929;28;20234;-91
2022/05/22 09:46:16;;;;;;;1.40;1.30;;;9.00;99.90;;;;;;5011819;28;20218;-91
2022/05/22 09:49:04;;;;;;;2.97;1.17;;;9.00;99.90;;;;;;5013789;28;20228;-91
2022/05/22 09:51:51;;;;;;;2.63;1.50;;;9.00;99.90;;;;;;5014004;28;20289;-91
2022/05/22 09:54:38;;;;;;;1.00;0.97;;;8.90;99.90;;;;;;5002962;28;20229;-91
2022/05/22 09:57:42;;;;;;;1.37;1.13;;;8.90;99.90;;;;;;5009371;28;20273;-90
2022/05/22 10:00:19;;;;;;;1.30;1.20;;;8.90;99.90;;;;;;5003177;28;20260;-90
2022/05/22 10:03:06;;;;;;;2.30;1.30;;;8.90;99.90;;;;;;5001722;28;20261;-90
2022/05/22 10:05:49;;;;;;;2.37;1.13;;;8.80;99.90;;;;;;5006012;28;20219;-90
2022/05/22 10:08:33;;;;;;;1.97;1.23;;;8.70;99.90;;;;;;5001326;28;20202;-90
2022/05/22 10:11:14;;;;;;;2.57;1.40;;;8.70;99.90;;;;;;5000464;28;20300;-90
2022/05/22 10:14:12;;;;;;;3.47;1.20;;;8.70;99.90;;;;;;5001137;28;20202;-91
2022/05/22 10:17:11;;;;;;;1.20;1.10;;;8.60;99.90;;;;;;5000535;28;20248;-91
2022/05/22 10:19:50;;;;;;;2.40;1.20;;;8.70;99.90;;;;;;5005986;28;20199;-90
2022/05/22 10:22:36;;;;;;;3.00;1.20;;;8.70;99.90;;;;;;5008801;28;20292;-91
2022/05/22 10:25:28;;;;;;;1.73;1.13;;;8.70;99.90;;;;;;5010552;28;20214;-91
2022/05/22 10:28:05;;;;;;;1.30;1.20;;;8.70;99.90;;;;;;5001680;28;20230;-90
2022/05/22 10:30:41;;;;;;;1.23;1.13;;;8.60;99.90;;;;;;5008907;28;20187;-90
2022/05/22 10:33:29;;;;;;;4.83;1.20;;;8.60;99.90;;;;;;4999928;28;20225;-90
2022/05/22 10:36:10;;;;;;;1.57;1.40;;;8.50;99.90;;;;;;4994696;28;20234;-89
2022/05/22 10:38:46;;;;;;;1.70;1.30;;;8.50;99.90;;;;;;4983044;28;20218;-90
2022/05/22 10:44:16;;;;;;;2.00;1.83;;;8.30;99.90;;;;;;4981014;28;20273;-89
2022/05/22 10:46:50;;;;;;;1.57;1.20;;;8.30;99.90;;;;;;4979881;28;20218;-90
2022/05/22 10:49:38;;;;;;;1.60;1.30;;;8.20;99.90;;;;;;4979994;28;20211;-90
2022/05/22 10:52:11;;;;;;;2.43;1.60;;;8.20;99.90;;;;;;4980563;28;20207;-90
2022/05/22 10:54:48;;;;;;;1.70;1.40;;;8.20;99.90;;;;;;4979516;28;20591;-90
2022/05/22 10:57:23;;;;;;;1.90;1.33;;;8.20;99.90;;;;;;4979587;28;20219;-90
2022/05/22 10:59:55;;;;;;;1.60;1.50;;;8.10;99.90;;;;;;4978459;28;20248;-90
2022/05/22 11:02:47;;;;;;;2.90;1.37;;;8.10;99.90;;;;;;4991792;28;20238;-90
2022/05/22 11:05:24;;;;;;;2.50;1.30;;;8.10;99.90;;;;;;4998717;28;20217;-90
2022/05/22 11:07:58;;;;;;;3.47;1.23;;;8.10;99.90;;;;;;4999178;28;20225;-90
2022/05/22 11:10:35;;;;;;;1.83;1.13;;;8.10;99.90;;;;;;4997730;28;20237;-90
2022/05/22 11:13:09;;;;;;;1.27;1.13;;;8.00;99.90;;;;;;4999003;28;20703;-90
2022/05/22 11:15:42;;;;;;;1.43;1.23;;;8.00;99.90;;;;;;5000514;28;20717;-91
2022/05/22 11:18:21;;;;;;;1.93;1.40;;;8.00;99.90;;;;;;4998524;28;20217;-90
2022/05/22 11:21:00;;;;;;;1.60;1.40;;;7.90;99.90;;;;;;4998240;28;20206;-90
2022/05/22 11:23:53;;;;;;;2.27;1.30;;;7.90;99.90;;;;;;4998553;28;20242;-89
2022/05/22 11:26:34;;;;;;;4.30;1.30;;;7.90;99.90;;;;;;4998121;28;20637;-90
2022/05/22 11:29:23;;;;;;;4.83;1.20;;;8.00;99.90;;;;;;4998695;28;20228;-91
2022/05/22 11:32:01;;;;;;;1.10;1.00;;;8.00;99.90;;;;;;4992882;28;20211;-90
2022/05/22 11:35:02;;;;;;;2.97;0.90;;;7.90;99.90;;;;;;4977906;28;20622;-89
2022/05/22 11:37:50;;;;;;;1.90;1.07;;;7.90;99.90;;;;;;4979000;28;20256;-90
2022/05/22 11:40:32;;;;;;;1.43;1.10;;;7.90;99.90;;;;;;4977960;28;20215;-90
2022/05/22 11:43:19;;;;;;;2.20;1.07;;;7.90;99.90;;;;;;4978295;28;20238;-90
2022/05/22 11:45:57;;;;;;;1.60;1.03;;;8.00;99.90;;;;;;4978510;28;20234;-90
2022/05/22 11:48:58;;;;;;;1.17;1.07;;;8.00;99.90;;;;;;4976572;28;20619;-89
2022/05/22 11:51:56;;;;;;;1.13;1.03;;;7.90;99.90;;;;;;4948088;28;20215;-90
2022/05/22 11:54:47;;;;;;;1.33;1.10;;;7.80;99.90;;;;;;4958894;29;20235;-90
2022/05/22 11:57:34;;;;;;;1.27;1.17;;;7.70;99.90;;;;;;4959583;28;20215;-90
2022/05/22 12:00:17;;;;;;;1.67;1.20;;;7.70;99.90;;;;;;4959205;28;20246;-90
2022/05/22 12:03:25;;;;;;;1.50;1.00;;;7.80;99.90;;;;;;4985647;28;20253;-90
2022/05/22 12:06:11;;;;;;;2.30;0.97;;;7.80;99.90;;;;;;4998316;28;20241;-90
2022/05/22 12:08:56;;;;;;;0.90;0.90;;;7.60;99.90;;;;;;4998400;28;20209;-90
2022/05/22 12:11:35;;;;;;;1.13;1.07;;;7.50;99.90;;;;;;4997715;28;20241;-90
2022/05/22 12:14:19;;;;;;;1.20;1.10;;;7.50;99.90;;;;;;5001158;28;20219;-90
2022/05/22 12:16:56;;;;;;;2.07;1.10;;;7.50;99.90;;;;;;4997906;28;20225;-91
2022/05/22 12:19:39;;;;;;;1.17;1.00;;;7.60;99.90;;;;;;4997437;28;20316;-93
2022/05/22 12:22:19;;;;;;;1.00;1.00;;;7.50;99.90;;;;;;4997293;28;20261;-91
2022/05/22 12:24:57;;;;;;;1.10;0.90;;;7.50;99.90;;;;;;4998752;28;20223;-92
2022/05/22 12:27:32;;;;;;;1.10;0.97;;;7.50;99.90;;;;;;5009156;28;20206;-91
2022/05/22 12:30:09;;;;;;;0.80;0.80;;;7.40;99.90;;;;;;5008270;28;20233;-91
2022/05/22 12:32:47;;;;;;;0.83;0.83;;;7.50;99.90;;;;;;5002900;28;20276;-92
2022/05/22 12:35:19;;;;;;;2.10;1.00;;;7.50;99.90;;;;;;5002733;28;20273;-91
2022/05/22 12:37:55;;;;;;;1.20;1.10;;;7.50;99.90;;;;;;5002950;28;20210;-91
2022/05/22 12:40:44;;;;;;;1.00;0.90;;;7.60;99.90;;;;;;4986262;28;20210;-92
2022/05/22 12:43:21;;;;;;;0.83;0.83;;;7.60;99.90;;;;;;4994304;28;20226;-92
2022/05/22 12:45:56;;;;;;;1.87;1.10;;;7.50;99.90;;;;;;4999418;28;20215;-91
2022/05/22 12:48:38;;;;;;;0.83;0.83;;;7.50;99.90;;;;;;4996049;28;20230;-91
2022/05/22 12:51:18;;;;;;;2.23;0.90;;;7.50;99.90;;;;;;4986198;28;20230;-91
2022/05/22 12:53:54;;;;;;;1.13;0.80;;;7.60;99.90;;;;;;4985257;28;20296;-89
2022/05/22 12:56:38;;;;;;;1.10;1.00;;;7.60;99.90;;;;;;4985030;28;20284;-91
2022/05/22 12:59:25;;;;;;;2.73;1.10;;;7.70;99.90;;;;;;4985494;28;20203;-91
2022/05/22 13:01:58;;;;;;;1.00;0.87;;;7.60;99.90;;;;;;4970730;28;20746;-91
2022/05/22 13:04:36;;;;;;;1.07;1.00;;;7.60;99.90;;;;;;4984636;28;20254;-91
2022/05/22 13:07:14;;;;;;;1.00;0.90;;;7.50;99.90;;;;;;4983311;28;20223;-92
2022/05/22 13:09:49;;;;;;;1.60;1.07;;;7.50;99.90;;;;;;4977915;28;20745;-91
2022/05/22 13:12:30;;;;;;;1.90;0.90;;;7.60;99.90;;;;;;4962390;28;20529;-89
2022/05/22 13:15:13;;;;;;;1.70;0.87;;;7.60;99.90;;;;;;4963060;28;20278;-89
2022/05/22 13:17:52;;;;;;;1.63;0.90;;;7.70;99.90;;;;;;4962824;28;20253;-92
2022/05/22 13:20:32;;;;;;;0.80;0.80;;;7.70;99.90;;;;;;4961897;29;20211;-91
2022/05/22 13:23:05;;;;;;;1.00;0.90;;;7.70;99.90;;;;;;4962843;28;20650;-92
2022/05/22 13:25:48;;;;;;;0.90;0.90;;;7.70;99.90;;;;;;4963159;28;20235;-92
2022/05/22 13:28:22;;;;;;;1.43;0.90;;;7.80;99.90;;;;;;4962881;28;20271;-91
2022/05/22 13:31:00;;;;;;;2.53;1.00;;;7.80;99.90;;;;;;4962312;28;20215;-89
2022/05/22 13:33:36;;;;;;;1.37;1.23;;;7.80;99.90;;;;;;5002715;28;20242;-90
2022/05/22 13:36:18;;;;;;;3.33;1.17;;;7.90;99.90;;;;;;5003863;28;20213;-90
2022/05/22 13:38:53;;;;;;;2.20;1.30;;;7.90;99.90;;;;;;5004725;28;20214;-90
2022/05/22 13:42:04;;;;;;;2.00;1.07;;;7.90;99.90;;;;;;5018066;28;20281;-90
2022/05/22 13:45:05;;;;;;;1.23;1.00;;;8.00;99.90;;;;;;4988367;28;20245;-91
2022/05/22 13:48:18;;;;;;;1.20;1.07;;;8.00;99.90;;;;;;5015086;28;20221;-90
2022/05/22 13:54:02;;;;;;;1.57;1.03;;;8.10;99.90;;;;;;4975376;28;20216;-90
2022/05/22 13:56:41;;;;;;;1.20;1.10;;;8.10;99.90;;;;;;4963355;28;20254;-90
2022/05/22 13:59:21;;;;;;;1.00;0.90;;;8.20;99.90;;;;;;4962725;29;20239;-90
2022/05/22 14:01:53;;;;;;;1.67;1.10;;;8.20;99.90;;;;;;4961740;28;20291;-90
2022/05/22 14:04:27;;;;;;;1.20;1.10;;;8.30;99.90;;;;;;4961962;28;20246;-90
2022/05/22 14:07:05;;;;;;;1.17;1.00;;;8.30;99.90;;;;;;4961491;28;20673;-90
2022/05/22 14:09:40;;;;;;;1.37;1.10;;;8.40;99.90;;;;;;4960782;28;20212;-90
2022/05/22 14:12:15;;;;;;;1.23;0.90;;;8.50;99.90;;;;;;4961412;28;20208;-90
2022/05/22 14:14:46;;;;;;;3.00;1.30;;;8.50;99.90;;;;;;4963742;28;20673;-90
2022/05/22 14:17:17;;;;;;;1.40;1.00;;;8.60;99.90;;;;;;4960342;28;20208;-90
2022/05/22 14:19:54;;;;;;;1.70;1.50;;;8.60;99.90;;;;;;4960338;28;20243;-91
2022/05/22 14:22:26;;;;;;;1.17;1.10;;;8.70;99.90;;;;;;4961262;28;20242;-90
2022/05/22 14:25:05;;;;;;;1.90;1.40;;;9.00;99.90;;;;;;4960986;28;20235;-91
2022/05/22 14:27:44;;;;;;;1.83;1.40;;;9.10;99.90;;;;;;4963582;28;20219;-91
2022/05/22 14:30:23;;;;;;;1.60;1.50;;;9.20;99.90;;;;;;4960030;29;20203;-90
2022/05/22 14:32:59;;;;;;;1.67;1.50;;;9.30;99.90;;;;;;4990230;28;20288;-90